createdAt,value
2022-07-26T00:01:45.891Z,2.37
2022-07-26T00:04:13.513Z,3.80
2022-07-26T00:06:42.324Z,3.50
2022-07-26T00:09:10.332Z,6.07
2022-07-26T00:11:38.106Z,1.30
2022-07-26T00:14:06.718Z,2.20
2022-07-26T00:16:34.527Z,1.50
2022-07-26T00:19:01.996Z,1.60
2022-07-26T00:21:30.442Z,1.30
2022-07-26T00:23:59.289Z,15.77
2022-07-26T00:26:26.753Z,4.97
2022-07-26T00:28:54.248Z,2.30
2022-07-26T00:31:21.803Z,2.60
2022-07-26T00:33:49.337Z,4.63
2022-07-26T00:36:16.833Z,2.97
2022-07-26T00:38:44.332Z,2.40
2022-07-26T00:41:13.157Z,1.93
2022-07-26T00:43:53.863Z,1.70
2022-07-26T00:46:21.451Z,1.70
2022-07-26T00:48:49.074Z,5.53
2022-07-26T00:51:16.552Z,1.63
2022-07-26T00:53:45.910Z,1.40
2022-07-26T00:56:15.715Z,3.83
2022-07-26T00:58:43.470Z,1.80
2022-07-26T01:01:12.033Z,1.50
2022-07-26T01:03:40.138Z,1.30
2022-07-26T01:06:07.652Z,3.10
2022-07-26T01:08:35.227Z,4.17
2022-07-26T01:11:02.708Z,1.40
2022-07-26T01:13:35.092Z,1.70
2022-07-26T01:16:03.473Z,9.70
2022-07-26T01:18:31.057Z,2.23
2022-07-26T01:20:59.379Z,2.70
2022-07-26T01:23:28.264Z,1.90
2022-07-26T01:25:56.415Z,2.03
2022-07-26T01:28:24.046Z,1.60
2022-07-26T01:30:51.522Z,2.50
2022-07-26T01:33:19.024Z,2.50
2022-07-26T01:35:46.520Z,2.20
2022-07-26T01:38:13.954Z,2.23
2022-07-26T01:40:42.821Z,2.53
2022-07-26T01:43:10.280Z,4.20
2022-07-26T01:45:38.046Z,2.03
2022-07-26T01:48:05.856Z,1.80
2022-07-26T01:50:33.315Z,1.50
2022-07-26T01:53:00.785Z,2.10
2022-07-26T01:55:28.237Z,3.00
2022-07-26T01:57:57.092Z,1.73
2022-07-26T02:00:24.591Z,4.47
2022-07-26T02:02:52.188Z,5.07
2022-07-26T02:05:19.814Z,2.53
2022-07-26T02:07:47.275Z,2.17
2022-07-26T02:10:15.493Z,2.37
2022-07-26T02:12:43.318Z,2.10
2022-07-26T02:15:13.233Z,1.70
2022-07-26T02:17:41.100Z,3.90
2022-07-26T02:20:09.230Z,1.93
2022-07-26T02:22:36.704Z,5.70
2022-07-26T02:25:05.465Z,2.90
2022-07-26T02:27:33.321Z,1.70
2022-07-26T02:30:01.898Z,2.23
2022-07-26T02:32:30.721Z,5.40
2022-07-26T02:34:58.225Z,2.20
2022-07-26T02:37:25.832Z,5.67
2022-07-26T02:39:53.307Z,2.80
2022-07-26T02:42:20.711Z,1.70
2022-07-26T02:44:48.203Z,5.17
2022-07-26T02:47:32.954Z,1.67
2022-07-26T02:50:00.631Z,4.70
2022-07-26T02:52:28.108Z,2.40
2022-07-26T02:54:55.584Z,4.63
2022-07-26T02:57:23.161Z,2.50
2022-07-26T02:59:50.627Z,2.77
2022-07-26T03:02:18.124Z,4.70
2022-07-26T03:04:46.969Z,4.43
2022-07-26T03:07:14.434Z,2.33
2022-07-26T03:09:41.885Z,2.40
2022-07-26T03:12:09.400Z,4.77
2022-07-26T03:14:36.829Z,2.40
2022-07-26T03:17:04.324Z,4.80
2022-07-26T03:19:31.816Z,3.83
2022-07-26T03:22:00.579Z,1.87
2022-07-26T03:24:28.142Z,5.13
2022-07-26T03:26:55.596Z,5.30
2022-07-26T03:29:23.036Z,9.57
2022-07-26T03:31:50.535Z,3.90
2022-07-26T03:34:18.021Z,7.03
2022-07-26T03:36:45.552Z,4.20
2022-07-26T03:39:14.365Z,4.23
2022-07-26T03:41:41.828Z,3.87
2022-07-26T03:44:09.781Z,4.20
2022-07-26T03:46:37.675Z,4.17
2022-07-26T03:49:05.290Z,4.73
2022-07-26T03:51:33.948Z,4.97
2022-07-26T03:54:01.436Z,3.87
2022-07-26T03:56:29.267Z,5.80
2022-07-26T03:58:56.769Z,5.10
2022-07-26T04:01:24.231Z,4.80
2022-07-26T04:03:52.294Z,3.60
2022-07-26T04:06:19.735Z,6.70
2022-07-26T04:08:50.636Z,4.30
2022-07-26T04:11:18.129Z,7.13
2022-07-26T04:13:47.222Z,9.77
2022-07-26T04:16:14.684Z,3.60
2022-07-26T04:18:42.654Z,5.50
2022-07-26T04:21:10.134Z,3.47
2022-07-26T04:23:37.594Z,4.93
2022-07-26T04:26:05.082Z,4.93
2022-07-26T04:28:33.238Z,3.00
2022-07-26T04:31:02.204Z,6.70
2022-07-26T04:33:29.668Z,4.83
2022-07-26T04:35:57.107Z,4.30
2022-07-26T04:38:24.575Z,3.10
2022-07-26T04:40:52.357Z,3.93
2022-07-26T04:43:19.929Z,6.37
2022-07-26T04:45:47.548Z,11.27
2022-07-26T04:48:17.099Z,3.13
2022-07-26T04:50:44.872Z,5.13
2022-07-26T04:53:12.422Z,3.50
2022-07-26T04:55:40.261Z,7.60
2022-07-26T04:58:07.946Z,5.27
2022-07-26T05:00:56.419Z,6.23
2022-07-26T05:03:25.049Z,7.30
2022-07-26T05:05:52.610Z,6.20
2022-07-26T05:08:20.100Z,4.47
2022-07-26T05:10:52.993Z,11.37
2022-07-26T05:13:23.118Z,4.10
2022-07-26T05:15:57.088Z,7.50
2022-07-26T05:18:26.466Z,7.13
2022-07-26T05:20:54.385Z,7.50
2022-07-26T05:23:21.987Z,5.80
2022-07-26T05:25:49.507Z,9.30
2022-07-26T05:28:17.019Z,6.57
2022-07-26T05:30:44.728Z,10.40
2022-07-26T05:33:16.439Z,8.80
2022-07-26T05:35:45.620Z,6.73
2022-07-26T05:38:13.083Z,8.50
2022-07-26T05:40:40.579Z,8.87
2022-07-26T05:43:08.055Z,5.97
2022-07-26T05:45:35.612Z,10.70
2022-07-26T05:48:03.138Z,8.60
2022-07-26T05:50:30.824Z,8.40
2022-07-26T05:52:59.614Z,9.50
2022-07-26T05:55:27.117Z,9.00
2022-07-26T05:57:54.598Z,6.57
2022-07-26T06:00:22.096Z,6.27
2022-07-26T06:02:49.727Z,8.60
2022-07-26T06:05:17.556Z,11.00
2022-07-26T06:07:45.024Z,14.43
2022-07-26T06:10:14.204Z,11.30
2022-07-26T06:12:41.964Z,6.10
2022-07-26T06:15:14.790Z,7.60
2022-07-26T06:17:43.370Z,12.97
2022-07-26T06:20:11.673Z,9.57
2022-07-26T06:22:39.156Z,7.70
2022-07-26T06:25:07.281Z,9.20
2022-07-26T06:27:36.100Z,10.37
2022-07-26T06:30:03.619Z,8.00
2022-07-26T06:32:31.039Z,7.13
2022-07-26T06:34:58.728Z,6.20
2022-07-26T06:37:26.231Z,7.13
2022-07-26T06:39:53.735Z,6.67
2022-07-26T06:42:21.239Z,9.40
2022-07-26T06:44:50.099Z,13.63
2022-07-26T06:47:17.602Z,9.23
2022-07-26T06:49:45.116Z,8.73
2022-07-26T06:52:12.572Z,14.63
2022-07-26T06:54:40.069Z,9.23
2022-07-26T06:57:07.873Z,11.20
2022-07-26T06:59:35.302Z,7.00
2022-07-26T07:02:04.169Z,10.47
2022-07-26T07:04:32.108Z,10.23
2022-07-26T07:07:05.163Z,11.30
2022-07-26T07:09:33.993Z,8.20
2022-07-26T07:12:09.824Z,8.97
2022-07-26T07:14:38.119Z,8.93
2022-07-26T07:17:11.607Z,18.00
2022-07-26T07:19:40.761Z,20.80
2022-07-26T07:22:11.702Z,13.03
2022-07-26T07:24:39.879Z,15.80
2022-07-26T07:27:07.347Z,12.40
2022-07-26T07:29:34.915Z,13.50
2022-07-26T07:32:03.550Z,12.40
2022-07-26T07:34:32.886Z,12.77
2022-07-26T07:37:00.380Z,11.13
2022-07-26T07:39:34.931Z,14.00
2022-07-26T07:42:06.288Z,12.70
2022-07-26T07:44:33.752Z,13.53
2022-07-26T07:47:01.333Z,11.87
2022-07-26T07:49:28.880Z,10.10
2022-07-26T07:51:57.741Z,12.30
2022-07-26T07:54:25.226Z,12.43
2022-07-26T07:56:53.178Z,10.40
2022-07-26T07:59:20.652Z,11.13
2022-07-26T08:01:50.583Z,11.60
2022-07-26T08:04:18.206Z,9.93
2022-07-26T08:06:50.238Z,12.87
2022-07-26T08:09:20.459Z,18.43
2022-07-26T08:11:50.730Z,10.30
2022-07-26T08:14:18.717Z,20.83
2022-07-26T08:16:46.204Z,16.00
2022-07-26T08:19:15.579Z,11.93
2022-07-26T08:21:46.024Z,9.73
2022-07-26T08:24:14.820Z,12.43
2022-07-26T08:26:43.659Z,11.27
2022-07-26T08:29:11.614Z,14.40
2022-07-26T08:31:40.456Z,15.63
2022-07-26T08:34:07.973Z,7.27
2022-07-26T08:36:35.453Z,17.90
2022-07-26T08:39:02.944Z,10.03
2022-07-26T08:41:31.650Z,9.67
2022-07-26T08:44:07.163Z,9.60
2022-07-26T08:46:36.139Z,12.93
2022-07-26T08:49:03.819Z,11.30
2022-07-26T08:51:31.765Z,8.73
2022-07-26T08:54:05.345Z,8.47
2022-07-26T08:56:33.874Z,15.27
2022-07-26T08:59:03.663Z,13.57
2022-07-26T09:01:32.522Z,15.73
2022-07-26T09:04:30.569Z,15.07
2022-07-26T09:07:00.027Z,11.80
2022-07-26T09:09:27.786Z,15.57
2022-07-26T09:11:56.116Z,10.80
2022-07-26T09:14:24.426Z,10.33
2022-07-26T09:16:59.863Z,11.50
2022-07-26T09:19:27.721Z,17.67
2022-07-26T09:21:57.776Z,11.77
2022-07-26T09:24:32.299Z,11.33
2022-07-26T09:27:00.590Z,14.20
2022-07-26T09:29:29.447Z,14.43
2022-07-26T09:32:11.461Z,20.20
2022-07-26T09:34:51.852Z,12.90
2022-07-26T09:37:21.592Z,13.10
2022-07-26T09:39:56.161Z,21.77
2022-07-26T09:42:29.021Z,12.30
2022-07-26T09:44:57.503Z,13.33
2022-07-26T09:47:36.225Z,13.43
2022-07-26T09:50:11.624Z,10.73
2022-07-26T09:52:39.478Z,9.07
2022-07-26T09:55:07.964Z,10.20
2022-07-26T09:57:36.112Z,12.33
2022-07-26T10:00:05.629Z,8.23
2022-07-26T10:02:34.678Z,14.17
2022-07-26T10:05:02.202Z,7.80
2022-07-26T10:07:29.707Z,10.50
2022-07-26T10:10:00.351Z,9.03
2022-07-26T10:12:30.658Z,18.23
2022-07-26T10:14:58.252Z,8.33
2022-07-26T10:17:46.356Z,10.77
2022-07-26T10:20:32.737Z,7.60
2022-07-26T10:23:02.615Z,10.30
2022-07-26T10:25:48.559Z,8.37
2022-07-26T10:28:26.983Z,12.97
2022-07-26T10:30:55.153Z,7.33
2022-07-26T10:33:24.682Z,14.27
2022-07-26T10:35:52.227Z,14.87
2022-07-26T10:38:29.373Z,11.60
2022-07-26T10:40:57.459Z,8.70
2022-07-26T10:43:42.009Z,11.80
2022-07-26T10:46:28.133Z,10.90
2022-07-26T10:49:00.445Z,9.27
2022-07-26T10:51:29.403Z,10.30
2022-07-26T10:54:01.991Z,12.60
2022-07-26T10:56:33.379Z,10.47
2022-07-26T10:59:01.574Z,12.27
2022-07-26T11:01:33.515Z,9.37
2022-07-26T11:04:01.346Z,11.30
2022-07-26T11:06:29.697Z,7.27
2022-07-26T11:08:57.200Z,7.67
2022-07-26T11:11:30.173Z,5.97
2022-07-26T11:14:04.871Z,4.77
2022-07-26T11:16:37.322Z,5.77
2022-07-26T11:19:12.885Z,5.77
2022-07-26T11:21:41.183Z,7.30
2022-07-26T11:24:09.150Z,4.23
2022-07-26T11:26:43.144Z,5.80
2022-07-26T11:29:17.268Z,3.23
2022-07-26T11:31:51.490Z,6.53
2022-07-26T11:34:28.205Z,4.53
2022-07-26T11:36:56.450Z,5.83
2022-07-26T11:39:24.393Z,7.80
2022-07-26T11:41:57.567Z,3.57
2022-07-26T11:44:25.452Z,3.73
2022-07-26T11:46:53.204Z,3.67
2022-07-26T11:49:23.099Z,4.60
2022-07-26T11:51:59.417Z,7.40
2022-07-26T11:54:28.123Z,5.40
2022-07-26T11:56:57.684Z,4.60
2022-07-26T11:59:25.609Z,6.70
2022-07-26T12:01:53.235Z,6.10
2022-07-26T12:04:22.397Z,3.43
2022-07-26T12:06:50.007Z,3.27
2022-07-26T12:09:34.304Z,5.10
2022-07-26T12:12:03.881Z,3.77
2022-07-26T12:14:32.163Z,3.60
2022-07-26T12:16:59.955Z,3.50
2022-07-26T12:19:28.838Z,5.37
2022-07-26T12:21:57.439Z,6.33
2022-07-26T12:24:38.724Z,7.83
2022-07-26T12:27:09.196Z,5.60
2022-07-26T12:29:37.289Z,3.77
2022-07-26T12:32:11.840Z,4.00
2022-07-26T12:34:40.815Z,6.43
2022-07-26T12:37:12.145Z,4.90
2022-07-26T12:39:39.816Z,3.93
2022-07-26T12:42:33.259Z,6.83
2022-07-26T12:45:03.165Z,7.33
2022-07-26T12:47:30.738Z,4.70
2022-07-26T12:49:58.205Z,3.83
2022-07-26T12:52:25.730Z,3.63
2022-07-26T12:54:53.848Z,4.70
2022-07-26T12:57:21.875Z,7.23
2022-07-26T12:59:50.788Z,3.27
2022-07-26T13:02:18.887Z,3.93
2022-07-26T13:04:46.781Z,3.73
2022-07-26T13:07:14.326Z,4.87
2022-07-26T13:09:41.826Z,7.77
2022-07-26T13:12:10.162Z,6.00
2022-07-26T13:14:38.147Z,3.80
2022-07-26T13:17:07.633Z,2.80
2022-07-26T13:19:35.501Z,5.23
2022-07-26T13:22:03.964Z,4.33
2022-07-26T13:24:33.102Z,3.70
2022-07-26T13:27:00.697Z,3.40
2022-07-26T13:29:28.409Z,5.80
2022-07-26T13:31:56.721Z,4.47
2022-07-26T13:34:25.951Z,4.47
2022-07-26T13:36:53.533Z,5.67
2022-07-26T13:39:21.008Z,4.67
2022-07-26T13:41:48.537Z,4.80
2022-07-26T13:44:16.198Z,4.10
2022-07-26T13:46:43.765Z,4.43
2022-07-26T13:49:12.529Z,3.73
2022-07-26T13:51:59.454Z,3.87
2022-07-26T13:54:28.435Z,3.40
2022-07-26T13:56:56.076Z,3.67
2022-07-26T13:59:23.612Z,4.77
2022-07-26T14:01:51.212Z,3.07
2022-07-26T14:04:18.879Z,2.83
2022-07-26T14:06:48.105Z,2.73
2022-07-26T14:09:15.752Z,9.63
2022-07-26T14:11:43.674Z,2.80
2022-07-26T14:14:11.488Z,3.20
2022-07-26T14:16:39.317Z,6.17
2022-07-26T14:19:06.829Z,7.53
2022-07-26T14:21:38.656Z,3.17
2022-07-26T14:24:24.111Z,4.27
2022-07-26T14:26:55.459Z,3.83
2022-07-26T14:29:26.228Z,3.43
2022-07-26T14:31:53.802Z,6.50
2022-07-26T14:34:21.405Z,3.70
2022-07-26T14:36:48.840Z,4.37
2022-07-26T14:39:16.337Z,4.43
2022-07-26T14:41:45.158Z,5.90
2022-07-26T14:44:13.023Z,3.17
2022-07-26T14:46:40.750Z,3.30
2022-07-26T14:49:08.316Z,3.30
2022-07-26T14:51:36.963Z,4.23
2022-07-26T14:54:04.615Z,5.53
2022-07-26T14:56:32.168Z,3.20
2022-07-26T14:59:01.102Z,3.30
2022-07-26T15:01:28.981Z,4.40
2022-07-26T15:03:56.624Z,2.97
2022-07-26T15:06:24.405Z,6.53
2022-07-26T15:08:51.899Z,3.60
2022-07-26T15:11:19.391Z,2.03
2022-07-26T15:13:46.887Z,2.60
2022-07-26T15:16:15.845Z,1.70
2022-07-26T15:18:43.626Z,1.83
2022-07-26T15:21:11.125Z,10.43
2022-07-26T15:23:39.939Z,1.90
2022-07-26T15:26:07.440Z,3.33
2022-07-26T15:28:34.917Z,1.67
2022-07-26T15:31:02.356Z,1.47
2022-07-26T15:33:32.021Z,1.47
2022-07-26T15:36:00.478Z,1.73
2022-07-26T15:38:31.574Z,2.37
2022-07-26T15:40:59.071Z,1.80
2022-07-26T15:43:48.410Z,1.50
2022-07-26T15:46:14.056Z,1.83
2022-07-26T15:48:44.749Z,2.13
2022-07-26T15:51:12.268Z,1.60
2022-07-26T15:53:44.447Z,1.77
2022-07-26T15:56:13.793Z,1.90
2022-07-26T15:58:41.247Z,2.17
2022-07-26T16:01:08.800Z,2.33
2022-07-26T16:03:36.249Z,1.70
2022-07-26T16:06:06.672Z,1.80
2022-07-26T16:08:47.294Z,1.80
2022-07-26T16:11:21.682Z,2.10
2022-07-26T16:13:49.147Z,3.80
2022-07-26T16:16:16.645Z,2.60
2022-07-26T16:18:44.593Z,1.97
2022-07-26T16:21:13.422Z,1.70
2022-07-26T16:23:40.904Z,1.73
2022-07-26T16:26:08.879Z,2.60
2022-07-26T16:28:36.638Z,2.00
2022-07-26T16:31:04.245Z,1.67
2022-07-26T16:33:31.794Z,6.13
2022-07-26T16:36:04.315Z,2.00
2022-07-26T16:38:35.080Z,2.20
2022-07-26T16:41:02.548Z,2.47
2022-07-26T16:43:31.272Z,2.43
2022-07-26T16:45:58.800Z,2.00
2022-07-26T16:48:26.238Z,2.23
2022-07-26T16:50:53.646Z,2.53
2022-07-26T16:53:21.160Z,1.80
2022-07-26T16:55:52.024Z,2.13
2022-07-26T16:58:19.544Z,4.77
2022-07-26T17:00:47.296Z,1.50
2022-07-26T17:03:15.814Z,2.30
2022-07-26T17:05:44.494Z,2.53
2022-07-26T17:08:12.163Z,4.97
2022-07-26T17:10:39.711Z,3.60
2022-07-26T17:13:08.569Z,2.27
2022-07-26T17:15:36.118Z,1.60
2022-07-26T17:18:03.543Z,1.67
2022-07-26T17:20:31.029Z,1.50
2022-07-26T17:22:58.548Z,4.60
2022-07-26T17:25:26.204Z,1.37
2022-07-26T17:27:53.986Z,3.10
2022-07-26T17:30:22.803Z,2.17
2022-07-26T17:32:50.349Z,1.70
2022-07-26T17:35:17.904Z,3.60
2022-07-26T17:37:45.846Z,2.37
2022-07-26T17:40:16.238Z,1.80
2022-07-26T17:42:43.991Z,2.10
2022-07-26T17:45:11.892Z,4.07
2022-07-26T17:47:41.045Z,1.30
2022-07-26T17:50:34.783Z,1.70
2022-07-26T17:52:56.791Z,1.47
2022-07-26T17:55:25.033Z,1.83
2022-07-26T17:57:52.842Z,1.50
2022-07-26T18:00:21.099Z,3.57
2022-07-26T18:02:50.021Z,2.60
2022-07-26T18:05:18.978Z,3.90
2022-07-26T18:07:46.577Z,2.50
2022-07-26T18:10:14.414Z,1.60
2022-07-26T18:12:42.183Z,1.63
2022-07-26T18:15:10.152Z,2.53
2022-07-26T18:17:38.090Z,4.30
2022-07-26T18:20:07.653Z,1.80
2022-07-26T18:22:35.111Z,1.80
2022-07-26T18:25:02.920Z,1.97
2022-07-26T18:27:30.367Z,5.40
2022-07-26T18:29:58.193Z,1.93
2022-07-26T18:32:25.994Z,3.07
2022-07-26T18:34:53.526Z,2.53
2022-07-26T18:37:22.344Z,2.93
2022-07-26T18:39:54.076Z,6.33
2022-07-26T18:42:24.704Z,2.87
2022-07-26T18:44:52.317Z,4.33
2022-07-26T18:47:19.878Z,2.53
2022-07-26T18:49:47.459Z,2.00
2022-07-26T18:52:15.051Z,1.80
2022-07-26T18:54:43.948Z,3.03
2022-07-26T18:57:11.446Z,2.40
2022-07-26T18:59:39.107Z,2.00
2022-07-26T19:02:07.340Z,1.90
2022-07-26T19:04:34.959Z,1.80
2022-07-26T19:07:02.578Z,2.17
2022-07-26T19:09:30.070Z,1.90
2022-07-26T19:11:58.896Z,2.97
2022-07-26T19:14:26.412Z,2.03
2022-07-26T19:16:53.923Z,1.63
2022-07-26T19:19:21.349Z,3.77
2022-07-26T19:21:49.330Z,1.90
2022-07-26T19:24:16.904Z,2.03
2022-07-26T19:26:44.650Z,1.70
2022-07-26T19:29:13.795Z,1.83
2022-07-26T19:31:44.711Z,2.80
2022-07-26T19:34:12.392Z,2.00
2022-07-26T19:36:39.954Z,1.83
2022-07-26T19:39:07.429Z,2.30
2022-07-26T19:41:34.944Z,1.60
2022-07-26T19:44:02.709Z,6.50
2022-07-26T19:46:32.044Z,2.63
2022-07-26T19:48:59.667Z,1.70
2022-07-26T19:51:27.192Z,2.17
2022-07-26T19:53:54.641Z,2.03
2022-07-26T19:56:22.131Z,1.70
2022-07-26T19:58:49.947Z,1.90
2022-07-26T20:01:17.638Z,6.13
2022-07-26T20:03:46.460Z,2.73
2022-07-26T20:06:13.892Z,3.50
2022-07-26T20:08:41.350Z,1.67
2022-07-26T20:11:08.897Z,4.00
2022-07-26T20:13:36.399Z,1.93
2022-07-26T20:16:04.251Z,2.50
2022-07-26T20:18:32.941Z,2.10
2022-07-26T20:21:01.749Z,1.90
2022-07-26T20:23:29.454Z,1.90
2022-07-26T20:25:56.922Z,1.87
2022-07-26T20:28:24.345Z,2.10
2022-07-26T20:30:53.294Z,4.57
2022-07-26T20:33:20.841Z,1.80
2022-07-26T20:35:52.928Z,3.57
2022-07-26T20:38:24.093Z,3.20
2022-07-26T20:40:51.605Z,2.10
2022-07-26T20:43:21.523Z,1.67
2022-07-26T20:45:49.199Z,2.90
2022-07-26T20:48:16.716Z,1.60
2022-07-26T20:50:44.240Z,2.10
2022-07-26T20:53:11.733Z,3.57
2022-07-26T20:55:40.616Z,1.70
2022-07-26T20:58:08.034Z,3.83
2022-07-26T21:00:35.543Z,1.77
2022-07-26T21:03:03.084Z,2.43
2022-07-26T21:05:32.603Z,1.77
2022-07-26T21:08:00.455Z,2.63
2022-07-26T21:10:29.014Z,1.93
2022-07-26T21:13:00.272Z,1.47
2022-07-26T21:15:28.067Z,3.23
2022-07-26T21:17:55.576Z,2.93
2022-07-26T21:20:23.221Z,2.70
2022-07-26T21:22:50.876Z,1.60
2022-07-26T21:25:18.373Z,2.13
2022-07-26T21:27:45.889Z,2.97
2022-07-26T21:30:14.998Z,1.70
2022-07-26T21:32:42.454Z,2.50
2022-07-26T21:35:10.380Z,2.73
2022-07-26T21:37:38.004Z,4.80
2022-07-26T21:40:06.084Z,3.57
2022-07-26T21:42:33.616Z,2.80
2022-07-26T21:45:01.184Z,3.23
2022-07-26T21:47:30.017Z,1.80
2022-07-26T21:49:57.441Z,2.50
2022-07-26T21:52:25.011Z,2.60
2022-07-26T21:54:52.446Z,2.80
2022-07-26T21:57:19.950Z,3.83
2022-07-26T21:59:47.472Z,4.13
2022-07-26T22:02:14.954Z,1.93
2022-07-26T22:04:48.890Z,2.73
2022-07-26T22:07:16.384Z,3.10
2022-07-26T22:09:43.847Z,3.10
2022-07-26T22:12:11.503Z,1.93
2022-07-26T22:14:38.986Z,2.97
2022-07-26T22:17:06.451Z,2.77
2022-07-26T22:19:33.922Z,2.03
2022-07-26T22:22:05.487Z,6.50
2022-07-26T22:24:33.010Z,2.33
2022-07-26T22:27:00.460Z,2.90
2022-07-26T22:29:28.025Z,4.27
2022-07-26T22:32:07.520Z,4.73
2022-07-26T22:34:35.039Z,6.23
2022-07-26T22:37:03.864Z,3.73
2022-07-26T22:39:31.333Z,3.13
2022-07-26T22:42:14.776Z,3.80
2022-07-26T22:44:43.012Z,3.37
2022-07-26T22:47:10.507Z,4.13
2022-07-26T22:49:38.070Z,5.87
2022-07-26T22:52:07.300Z,3.30
2022-07-26T22:54:34.817Z,4.03
2022-07-26T22:57:02.312Z,2.47
2022-07-26T22:59:29.791Z,2.63
2022-07-26T23:01:57.586Z,3.43
2022-07-26T23:04:25.033Z,5.00
2022-07-26T23:06:52.536Z,3.97
2022-07-26T23:09:23.733Z,3.60
2022-07-26T23:11:51.209Z,3.43
2022-07-26T23:14:18.715Z,2.90
2022-07-26T23:16:46.218Z,4.93
2022-07-26T23:19:14.229Z,3.00
2022-07-26T23:21:41.968Z,1.93
2022-07-26T23:24:09.593Z,4.00
2022-07-26T23:26:38.466Z,1.70
2022-07-26T23:29:06.067Z,9.80
2022-07-26T23:31:33.534Z,4.07
2022-07-26T23:34:01.023Z,2.77
2022-07-26T23:36:29.327Z,3.17
2022-07-26T23:38:57.101Z,3.57
2022-07-26T23:41:25.191Z,4.53
2022-07-26T23:43:54.963Z,3.97
2022-07-26T23:46:23.131Z,2.97
2022-07-26T23:48:51.109Z,5.43
2022-07-26T23:51:19.329Z,3.10
2022-07-26T23:53:47.203Z,3.90
2022-07-26T23:56:15.424Z,4.43
2022-07-26T23:58:42.958Z,3.30
